.
WxDataArchive / Data Records for 2013-10-29
2013-10-28 October 2013 2013-10-30

Data Records for Tuesday, 29 October 2013

Time	Temp	Chill	HIndex	Humid	Dewpt	 Wind 	HiWind	WindDir	Rain 	Barom 
-----	----	-----	------	-----	-----	------	------	-------	-----	----- 
00:00	40.9	40.9	40.9	87	37.3	0	2	68	0.00	30.347 
00:05	40.9	40.9	40.9	87	37.3	0	2	68	0.00	30.347 
00:10	41.1	41.1	41.1	87	37.5	1	4	68	0.00	30.347 
00:15	41.2	41.2	41.2	87	37.6	1	4	90	0.00	30.345 
00:20	41.2	41.2	41.2	87	37.6	1	6	90	0.00	30.345 
00:25	41.2	41.2	41.2	86	37.3	1	2	112	0.00	30.345 
00:30	41.1	41.1	41.1	86	37.2	1	4	112	0.00	30.349 
00:35	40.9	40.9	40.9	86	37.0	0	2	112	0.00	30.349 
00:40	40.8	40.8	40.8	86	36.9	1	3	112	0.00	30.349 
00:45	40.8	40.8	40.8	86	36.9	1	2	112	0.00	30.349 
00:50	40.6	40.6	40.6	86	36.7	0	1	112	0.00	30.349 
00:55	40.5	40.5	40.5	86	36.6	0	1	112	0.00	30.349 
01:00	40.2	40.2	40.2	86	36.4	0	3	112	0.00	30.350 
01:05	40.1	40.1	40.1	86	36.3	0	1	112	0.00	30.350 
01:10	39.8	39.8	39.8	86	36.0	0	2	112	0.00	30.350 
01:15	39.6	39.6	39.6	86	35.8	1	3	112	0.00	30.343 
01:20	39.5	39.5	39.5	86	35.7	0	2	112	0.00	30.343 
01:25	39.3	39.3	39.3	86	35.5	1	4	112	0.00	30.343 
01:30	39.2	39.2	39.2	85	35.1	1	4	112	0.00	30.344 
01:35	39.1	39.1	39.1	85	35.0	1	4	90	0.00	30.344 
01:40	39.1	39.1	39.1	84	34.7	1	3	90	0.00	30.344 
01:45	38.9	38.9	38.9	83	34.2	0	4	90	0.00	30.344 
01:50	38.8	38.8	38.8	83	34.1	1	3	90	0.00	30.344 
01:55	38.6	38.6	38.6	83	33.9	1	2	90	0.00	30.344 
02:00	38.5	38.5	38.5	83	33.8	1	3	90	0.00	30.347 
02:05	38.3	38.3	38.3	83	33.6	1	2	90	0.00	30.347 
02:10	38.2	38.2	38.2	83	33.5	0	2	90	0.00	30.347 
02:15	38.0	38.0	38.0	83	33.3	0	1	90	0.00	30.346 
02:20	37.8	37.8	37.8	84	33.4	0	1	90	0.00	30.346 
02:25	37.6	37.6	37.6	84	33.2	0	1	90	0.00	30.346 
02:30	37.5	37.5	37.5	84	33.1	0	1	90	0.00	30.346 
02:35	37.3	37.3	37.3	84	32.9	0	2	90	0.00	30.346 
02:40	37.3	37.3	37.3	84	32.9	0	1	90	0.00	30.346 
02:45	37.2	37.2	37.2	84	32.8	0	1	90	0.00	30.343 
02:50	37.0	37.0	37.0	84	32.6	0	1	90	0.00	30.343 
02:55	36.9	36.9	36.9	84	32.5	0	1	90	0.00	30.343 
03:00	36.8	36.8	36.8	84	32.4	0	0	---	0.00	30.344 
03:05	36.6	36.6	36.6	84	32.2	0	0	---	0.00	30.344 
03:10	36.5	36.5	36.5	85	32.4	0	1	90	0.00	30.344 
03:15	36.3	36.3	36.3	85	32.2	0	1	90	0.00	30.348 
03:20	36.3	36.3	36.3	85	32.2	0	1	90	0.00	30.348 
03:25	36.2	36.2	36.2	85	32.1	0	2	90	0.00	30.348 
03:30	36.2	36.2	36.2	85	32.1	0	1	90	0.00	30.354 
03:35	36.2	36.2	36.2	85	32.1	0	1	90	0.00	30.354 
03:40	36.2	36.2	36.2	85	32.1	0	1	90	0.00	30.354 
03:45	36.0	36.0	36.0	85	31.9	0	3	90	0.00	30.352 
03:50	36.0	36.0	36.0	85	31.9	0	1	90	0.00	30.352 
03:55	35.9	35.9	35.9	85	31.8	0	1	90	0.00	30.352 
04:00	35.9	35.9	35.9	85	31.8	0	1	90	0.00	30.351 
04:05	35.8	35.8	35.8	85	31.7	0	1	90	0.00	30.351 
04:10	35.8	35.8	35.8	85	31.7	0	1	90	0.00	30.351 
04:15	35.6	35.6	35.6	85	31.5	0	1	90	0.00	30.358 
04:20	35.6	35.6	35.6	85	31.5	0	2	90	0.00	30.358 
04:25	35.5	35.5	35.5	85	31.4	0	3	90	0.00	30.358 
04:30	35.5	35.5	35.5	85	31.4	0	2	90	0.00	30.360 
04:35	35.3	35.3	35.3	85	31.2	0	1	90	0.00	30.360 
04:40	35.2	35.2	35.2	85	31.2	0	0	---	0.00	30.360 
04:45	35.2	35.2	35.2	85	31.2	0	0	---	0.00	30.363 
04:50	35.0	35.0	35.0	85	31.0	0	1	90	0.00	30.363 
04:55	34.9	34.9	34.9	85	30.9	0	1	90	0.00	30.363 
05:00	34.9	34.9	34.9	85	30.9	0	0	---	0.00	30.362 
05:05	34.7	34.7	34.7	85	30.7	0	1	90	0.00	30.362 
05:10	34.7	34.7	34.7	86	30.9	0	2	90	0.00	30.362 
05:15	34.7	34.7	34.7	85	30.7	0	1	90	0.00	30.357 
05:20	34.6	34.6	34.6	86	30.9	0	1	90	0.00	30.357 
05:25	34.6	34.6	34.6	86	30.9	0	2	90	0.00	30.357 
05:30	34.6	34.6	34.6	86	30.9	0	1	90	0.00	30.352 
05:35	34.6	34.6	34.6	86	30.9	0	0	---	0.00	30.352 
05:40	34.6	34.6	34.6	86	30.9	0	2	90	0.00	30.352 
05:45	34.6	34.6	34.6	86	30.9	0	1	90	0.00	30.357 
05:50	34.6	34.6	34.6	85	30.6	0	2	90	0.00	30.357 
05:55	34.6	34.6	34.6	85	30.6	0	3	90	0.00	30.357 
06:00	34.6	34.6	34.6	85	30.6	0	2	90	0.00	30.361 
06:05	34.6	34.6	34.6	85	30.6	0	2	90	0.00	30.361 
06:10	34.6	34.6	34.6	85	30.6	0	1	90	0.00	30.361 
06:15	34.4	34.4	34.4	85	30.4	0	1	90	0.00	30.369 
06:20	34.3	34.3	34.3	85	30.3	0	1	90	0.00	30.369 
06:25	34.3	34.3	34.3	85	30.3	0	1	90	0.00	30.369 
06:30	34.1	34.1	34.1	85	30.1	0	1	90	0.00	30.370 
06:35	34.1	34.1	34.1	85	30.1	0	1	90	0.00	30.370 
06:40	34.0	34.0	34.0	86	30.3	0	2	90	0.00	30.370 
06:45	34.0	34.0	34.0	86	30.3	0	2	90	0.00	30.371 
06:50	34.0	34.0	34.0	86	30.3	0	3	90	0.00	30.371 
06:55	34.0	34.0	34.0	86	30.3	0	2	90	0.00	30.371 
07:00	34.0	34.0	34.0	86	30.3	0	1	90	0.00	30.372 
07:05	34.0	34.0	34.0	86	30.3	0	2	90	0.00	30.372 
07:10	33.8	33.8	33.8	86	30.1	0	1	90	0.00	30.372 
07:15	33.8	33.8	33.8	86	30.1	0	2	90	0.00	30.378 
07:20	33.8	33.8	33.8	86	30.1	0	2	90	0.00	30.378 
07:25	33.8	33.8	33.8	86	30.1	1	3	90	0.00	30.378 
07:30	33.8	33.8	33.8	86	30.1	1	3	90	0.00	30.386 
07:35	33.7	33.7	33.7	86	30.0	1	3	90	0.00	30.386 
07:40	33.7	33.7	33.7	86	30.0	0	2	90	0.00	30.386 
07:45	33.5	33.5	33.5	86	29.8	1	2	90	0.00	30.384 
07:50	33.5	33.5	33.5	86	29.8	1	3	90	0.00	30.384 
07:55	33.5	33.5	33.5	86	29.8	0	1	90	0.00	30.384 
08:00	33.4	33.4	33.4	86	29.7	0	1	90	0.00	30.385 
08:05	33.2	33.2	33.2	87	29.8	0	1	90	0.00	30.385 
08:10	33.1	33.1	33.1	87	29.7	0	2	90	0.00	30.385 
08:15	33.1	33.1	33.1	87	29.7	0	1	90	0.00	30.381 
08:20	32.9	32.9	32.9	87	29.5	0	2	90	0.00	30.381 
08:25	32.9	32.9	32.9	87	29.5	0	2	90	0.00	30.381 
08:30	32.9	32.9	32.9	88	29.7	0	2	90	0.00	30.385 
08:35	32.9	32.9	32.9	88	29.7	0	1	90	0.00	30.385 
08:40	33.1	33.1	33.1	88	29.9	0	2	90	0.00	30.385 
08:45	33.1	33.1	33.1	88	29.9	0	1	90	0.00	30.392 
08:50	33.2	33.2	33.2	88	30.0	0	1	90	0.00	30.392 
08:55	33.4	33.4	33.4	88	30.2	0	0	---	0.00	30.392 
09:00	33.7	33.7	33.7	88	30.5	0	2	90	0.00	30.402 
09:05	34.0	34.0	34.0	88	30.8	0	3	90	0.00	30.402 
09:10	34.3	34.3	34.3	88	31.1	0	2	90	0.00	30.402 
09:15	34.6	34.6	34.6	87	31.1	1	4	90	0.00	30.403 
09:20	34.9	34.9	34.9	87	31.4	1	3	90	0.00	30.403 
09:25	35.2	35.2	35.2	86	31.4	0	3	90	0.00	30.403 
09:30	35.5	35.5	35.5	86	31.7	1	3	90	0.00	30.407 
09:35	35.9	35.9	35.9	86	32.1	0	3	90	0.00	30.407 
09:40	36.5	36.5	36.5	85	32.4	1	6	90	0.00	30.407 
09:45	36.9	36.9	36.9	84	32.5	2	7	90	0.00	30.400 
09:50	37.3	37.3	37.3	84	32.9	1	6	68	0.00	30.400 
09:55	38.0	38.0	38.0	82	33.0	1	6	90	0.00	30.400 
10:00	38.5	38.5	38.5	82	33.5	1	5	112	0.00	30.400 
10:05	38.9	38.9	38.9	82	33.9	2	5	112	0.00	30.400 
10:10	39.3	39.3	39.3	81	34.0	2	6	112	0.00	30.400 
10:15	39.6	39.6	39.6	81	34.3	2	5	112	0.00	30.404 
10:20	39.9	39.9	39.9	80	34.2	2	5	112	0.00	30.404 
10:25	40.2	40.2	40.2	80	34.5	2	5	90	0.00	30.404 
10:30	40.6	40.6	40.6	80	34.9	1	5	68	0.00	30.408 
10:35	40.9	40.9	40.9	80	35.2	2	4	68	0.00	30.408 
10:40	41.2	41.2	41.2	79	35.2	2	5	90	0.00	30.408 
10:45	41.5	41.5	41.5	79	35.5	2	5	90	0.00	30.402 
10:50	41.8	41.8	41.8	79	35.8	1	4	112	0.00	30.402 
10:55	42.1	42.1	42.1	78	35.7	1	6	90	0.00	30.402 
11:00	42.3	42.3	42.3	77	35.6	2	4	112	0.00	30.399 
11:05	42.5	42.5	42.5	78	36.1	2	4	68	0.00	30.399 
11:10	42.8	42.8	42.8	78	36.4	1	3	68	0.00	30.399 
11:15	43.3	43.3	43.3	78	36.9	1	5	68	0.00	30.393 
11:20	43.8	43.8	43.8	77	37.1	1	3	68	0.00	30.393 
11:25	44.1	44.1	44.1	77	37.4	2	6	68	0.00	30.393 
11:30	44.5	44.5	44.5	76	37.4	2	5	90	0.00	30.384 
11:35	44.8	44.8	44.8	76	37.7	2	5	90	0.00	30.384 
11:40	45.2	45.2	45.2	76	38.1	1	5	112	0.00	30.384 
11:45	45.7	45.7	45.7	76	38.6	1	3	112	0.00	30.376 
11:50	46.1	46.1	46.1	75	38.6	1	4	90	0.00	30.376 
11:55	46.5	46.5	46.5	74	38.7	1	4	68	0.00	30.376 
12:00	46.8	46.8	46.8	74	39.0	1	5	68	0.00	30.377 
12:05	47.0	47.0	47.0	73	38.8	2	5	68	0.00	30.377 
12:10	47.3	47.3	47.3	73	39.1	1	3	68	0.00	30.377 
12:15	47.4	47.4	47.4	72	38.8	2	5	68	0.00	30.378 
12:20	47.6	47.6	47.6	72	39.0	1	3	90	0.00	30.378 
12:25	48.0	48.0	48.0	71	39.1	1	6	90	0.00	30.378 
12:30	48.2	48.2	48.2	71	39.2	2	7	90	0.00	30.368 
12:35	48.5	48.5	48.5	72	39.9	1	3	90	0.00	30.368 
12:40	48.8	48.8	48.8	71	39.8	1	5	90	0.00	30.368 
12:45	49.1	49.1	49.1	70	39.7	0	3	112	0.00	30.363 
12:50	49.4	49.4	49.4	69	39.7	1	5	112	0.00	30.363 
12:55	49.5	49.5	49.5	69	39.8	2	5	90	0.00	30.363 
13:00	49.8	49.8	49.8	70	40.4	1	5	90	0.00	30.356 
13:05	50.1	50.1	50.1	68	40.0	1	5	90	0.00	30.356 
13:10	50.2	50.2	50.2	68	40.1	2	5	90	0.00	30.356 
13:15	50.4	50.4	50.4	68	40.2	1	5	90	0.00	30.343 
13:20	50.5	50.5	50.5	67	40.0	2	4	90	0.00	30.343 
13:25	50.8	50.8	50.8	67	40.2	1	4	90	0.00	30.343 
13:30	51.0	51.0	51.0	66	40.0	1	4	90	0.00	30.329 
13:35	51.3	51.3	51.3	66	40.3	1	3	68	0.00	30.329 
13:40	51.6	51.6	51.6	64	39.8	2	4	90	0.00	30.329 
13:45	51.6	51.6	51.6	64	39.8	2	5	68	0.00	30.320 
13:50	51.7	51.7	51.7	65	40.3	1	4	68	0.00	30.320 
13:55	52.0	52.0	52.0	63	39.8	1	4	68	0.00	30.320 
14:00	52.3	52.3	52.3	63	40.1	1	4	68	0.00	30.314 
14:05	52.3	52.3	52.3	61	39.3	1	5	68	0.00	30.314 
14:10	52.6	52.6	52.6	61	39.5	0	2	90	0.00	30.314 
14:15	52.8	52.8	52.8	59	38.9	0	3	90	0.00	30.314 
14:20	53.1	53.1	53.1	60	39.6	0	1	90	0.00	30.314 
14:25	53.2	53.2	53.2	59	39.2	1	4	90	0.00	30.314 
14:30	53.1	53.1	53.1	60	39.6	2	6	90	0.00	30.303 
14:35	53.1	53.1	53.1	60	39.6	1	3	90	0.00	30.303 
14:40	53.1	53.1	53.1	59	39.2	1	4	90	0.00	30.303 
14:45	53.1	53.1	53.1	60	39.6	2	4	90	0.00	30.296 
14:50	53.2	53.2	53.2	60	39.7	1	3	90	0.00	30.296 
14:55	53.3	53.3	53.3	59	39.3	1	4	90	0.00	30.296 
15:00	53.5	53.5	53.5	59	39.5	1	5	90	0.00	30.286 
15:05	53.5	53.5	53.5	59	39.5	1	3	90	0.00	30.286 
15:10	53.6	53.6	53.6	59	39.6	1	4	90	0.00	30.286 
15:15	53.9	53.9	53.9	58	39.5	1	3	90	0.00	30.288 
15:20	54.1	54.1	54.1	58	39.7	0	2	90	0.00	30.288 
15:25	54.2	54.2	54.2	57	39.3	1	3	90	0.00	30.288 
15:30	54.4	54.4	54.4	57	39.5	0	2	90	0.00	30.282 
15:35	54.2	54.2	54.2	58	39.7	1	3	90	0.00	30.282 
15:40	54.1	54.1	54.1	58	39.7	1	3	90	0.00	30.282 
15:45	54.1	54.1	54.1	58	39.7	0	2	90	0.00	30.273 
15:50	54.2	54.2	54.2	57	39.3	1	3	90	0.00	30.273 
15:55	54.1	54.1	54.1	57	39.2	2	6	90	0.00	30.273 
16:00	54.1	54.1	54.1	58	39.7	0	2	68	0.00	30.268 
16:05	54.1	54.1	54.1	58	39.7	0	1	68	0.00	30.268 
16:10	54.1	54.1	54.1	58	39.7	1	4	68	0.00	30.268 
16:15	53.9	53.9	53.9	58	39.5	1	4	68	0.00	30.269 
16:20	54.1	54.1	54.1	59	40.1	1	3	68	0.00	30.269 
16:25	54.2	54.2	54.2	58	39.7	0	2	68	0.00	30.269 
16:30	54.4	54.4	54.4	58	39.9	1	5	68	0.00	30.268 
16:35	54.4	54.4	54.4	58	39.9	1	4	68	0.00	30.268 
16:40	54.4	54.4	54.4	58	39.9	1	4	68	0.00	30.268 
16:45	54.2	54.2	54.2	58	39.7	0	2	68	0.00	30.269 
16:50	54.1	54.1	54.1	58	39.7	1	2	68	0.00	30.269 
16:55	54.1	54.1	54.1	59	40.1	0	3	68	0.00	30.269 
17:00	54.1	54.1	54.1	58	39.7	0	1	68	0.00	30.263 
17:05	54.1	54.1	54.1	58	39.7	0	1	68	0.00	30.263 
17:10	54.1	54.1	54.1	58	39.7	0	3	68	0.00	30.263 
17:15	54.1	54.1	54.1	58	39.7	0	2	68	0.00	30.262 
17:20	54.1	54.1	54.1	59	40.1	0	1	68	0.00	30.262 
17:25	54.1	54.1	54.1	59	40.1	0	2	68	0.00	30.262 
17:30	53.9	53.9	53.9	59	39.9	1	3	68	0.00	30.255 
17:35	53.9	53.9	53.9	59	39.9	0	1	68	0.00	30.255 
17:40	53.6	53.6	53.6	60	40.1	0	0	---	0.00	30.255 
17:45	53.5	53.5	53.5	60	40.0	0	0	---	0.00	30.254 
17:50	53.2	53.2	53.2	61	40.1	0	0	---	0.00	30.254 
17:55	53.1	53.1	53.1	62	40.4	0	0	---	0.00	30.254 
18:00	52.8	52.8	52.8	62	40.1	0	0	---	0.00	30.253 
18:05	52.3	52.3	52.3	63	40.1	0	0	---	0.00	30.253 
18:10	51.9	51.9	51.9	64	40.1	0	0	---	0.00	30.253 
18:15	51.4	51.4	51.4	65	40.0	0	0	---	0.00	30.256 
18:20	50.8	50.8	50.8	66	39.9	0	0	---	0.00	30.256 
18:25	50.4	50.4	50.4	66	39.5	0	0	---	0.00	30.256 
18:30	50.1	50.1	50.1	67	39.6	0	0	---	0.00	30.257 
18:35	49.6	49.6	49.6	68	39.5	0	0	---	0.00	30.257 
18:40	49.1	49.1	49.1	69	39.4	0	0	---	0.00	30.257 
18:45	48.6	48.6	48.6	71	39.6	0	0	---	0.00	30.259 
18:50	48.2	48.2	48.2	72	39.6	0	0	---	0.00	30.259 
18:55	47.7	47.7	47.7	73	39.5	0	0	---	0.00	30.259 
19:00	47.3	47.3	47.3	74	39.4	0	0	---	0.00	30.253 
19:05	47.0	47.0	47.0	74	39.1	0	0	---	0.00	30.253 
19:10	46.5	46.5	46.5	75	39.0	0	0	---	0.00	30.253 
19:15	46.2	46.2	46.2	76	39.1	0	0	---	0.00	30.248 
19:20	45.8	45.8	45.8	77	39.0	0	0	---	0.00	30.248 
19:25	45.8	45.8	45.8	77	39.0	0	1	68	0.00	30.248 
19:30	46.0	46.0	46.0	76	38.9	0	1	68	0.00	30.247 
19:35	46.2	46.2	46.2	76	39.1	0	0	---	0.00	30.247 
19:40	46.2	46.2	46.2	76	39.1	0	0	---	0.00	30.247 
19:45	46.1	46.1	46.1	76	39.0	0	0	---	0.00	30.259 
19:50	46.0	46.0	46.0	76	38.9	0	0	---	0.00	30.259 
19:55	45.8	45.8	45.8	76	38.7	0	0	---	0.00	30.259 
20:00	45.7	45.7	45.7	77	38.9	0	0	---	0.00	30.258 
20:05	45.7	45.7	45.7	77	38.9	0	0	---	0.00	30.258 
20:10	45.5	45.5	45.5	77	38.7	0	0	---	0.00	30.258 
20:15	45.5	45.5	45.5	78	39.0	0	0	---	0.00	30.259 
20:20	45.5	45.5	45.5	79	39.4	0	0	---	0.00	30.259 
20:25	45.5	45.5	45.5	79	39.4	0	0	---	0.00	30.259 
20:30	45.8	45.8	45.8	78	39.3	0	0	---	0.00	30.250 
20:35	46.2	46.2	46.2	77	39.4	0	1	68	0.00	30.250 
20:40	46.7	46.7	46.7	75	39.2	0	1	68	0.00	30.250 
20:45	47.1	47.1	47.1	74	39.2	0	2	68	0.00	30.244 
20:50	47.4	47.4	47.4	73	39.2	0	1	68	0.00	30.244 
20:55	47.7	47.7	47.7	72	39.1	0	1	68	0.00	30.244 
21:00	47.9	47.9	47.9	72	39.3	0	1	68	0.00	30.236 
21:05	48.0	48.0	48.0	72	39.4	0	1	68	0.00	30.236 
21:10	48.0	48.0	48.0	72	39.4	0	0	---	0.00	30.236 
21:15	47.9	47.9	47.9	72	39.3	0	0	---	0.00	30.229 
21:20	47.9	47.9	47.9	73	39.7	0	0	---	0.00	30.229 
21:25	47.7	47.7	47.7	73	39.5	0	0	---	0.00	30.229 
21:30	47.7	47.7	47.7	73	39.5	0	0	---	0.00	30.228 
21:35	47.6	47.6	47.6	73	39.4	0	0	---	0.00	30.228 
21:40	47.4	47.4	47.4	75	39.9	0	0	---	0.00	30.228 
21:45	47.3	47.3	47.3	75	39.8	0	0	---	0.00	30.226 
21:50	47.1	47.1	47.1	75	39.6	0	1	68	0.00	30.226 
21:55	47.1	47.1	47.1	74	39.2	0	2	68	0.00	30.226 
22:00	47.3	47.3	47.3	74	39.4	0	1	68	0.00	30.222 
22:05	47.4	47.4	47.4	74	39.5	0	1	68	0.00	30.222 
22:10	47.4	47.4	47.4	74	39.5	0	2	68	0.00	30.222 
22:15	47.4	47.4	47.4	73	39.2	0	2	68	0.00	30.222 
22:20	47.4	47.4	47.4	73	39.2	0	1	68	0.00	30.222 
22:25	47.4	47.4	47.4	73	39.2	0	1	68	0.00	30.222 
22:30	47.4	47.4	47.4	74	39.5	0	1	68	0.00	30.224 
22:35	47.3	47.3	47.3	74	39.4	0	2	68	0.00	30.224 
22:40	47.1	47.1	47.1	73	38.9	0	2	68	0.00	30.224 
22:45	47.0	47.0	47.0	74	39.1	0	2	68	0.00	30.227 
22:50	47.0	47.0	47.0	74	39.1	0	2	68	0.00	30.227 
22:55	47.0	47.0	47.0	75	39.5	1	2	68	0.00	30.227 
23:00	46.8	46.8	46.8	76	39.6	1	3	68	0.00	30.222 
23:05	46.8	46.8	46.8	76	39.6	0	2	68	0.00	30.222 
23:10	46.7	46.7	46.7	77	39.9	0	2	68	0.00	30.222 
23:15	46.7	46.7	46.7	77	39.9	1	3	68	0.00	30.216 
23:20	46.5	46.5	46.5	78	40.0	0	3	68	0.00	30.216 
23:25	46.5	46.5	46.5	78	40.0	1	3	68	0.00	30.216 
23:30	46.4	46.4	46.4	79	40.2	0	3	68	0.00	30.220 
23:35	46.4	46.4	46.4	79	40.2	1	3	68	0.00	30.220 
23:40	46.4	46.4	46.4	79	40.2	0	2	68	0.00	30.220 
23:45	46.4	46.4	46.4	80	40.6	0	3	68	0.00	30.215 
23:50	46.4	46.4	46.4	80	40.6	1	3	68	0.00	30.215 
23:55	46.4	46.4	46.4	80	40.6	0	2	68	0.00	30.215 

CoCoRaHS
IN-AL-39
A2 Web Hosting
Creative Commons License
GoDaddy
search engine by freefind advanced

loaded 2018-11-16 01:10:03 • last modified 2010-11-18 10:43:29
Privacy PolicyDisclaimer
• wx.awcolley.com is powered by PmWiki v.2002016 •
• all content (unless otherwise noted) © 2018 A W Colley